sensor_id;sensor_type;location;lat;lon;timestamp;P1;durP1;ratioP1;P2;durP2;ratioP2
61091;SDS011;46975;51.898;11.444;2023-01-31T00:01:15;2.85;;;1.38;;
61091;SDS011;46975;51.898;11.444;2023-01-31T00:03:43;8.52;;;2.47;;
61091;SDS011;46975;51.898;11.444;2023-01-31T00:08:34;4.28;;;1.27;;
61091;SDS011;46975;51.898;11.444;2023-01-31T00:11:00;11.80;;;1.30;;
61091;SDS011;46975;51.898;11.444;2023-01-31T00:13:26;5.32;;;2.20;;
61091;SDS011;46975;51.898;11.444;2023-01-31T00:15:54;6.03;;;2.10;;
61091;SDS011;46975;51.898;11.444;2023-01-31T00:18:20;18.55;;;3.35;;
61091;SDS011;46975;51.898;11.444;2023-01-31T00:20:46;8.80;;;2.03;;
61091;SDS011;46975;51.898;11.444;2023-01-31T00:23:12;9.25;;;2.20;;
61091;SDS011;46975;51.898;11.444;2023-01-31T00:25:37;13.30;;;4.38;;
61091;SDS011;46975;51.898;11.444;2023-01-31T00:28:03;12.00;;;2.55;;
61091;SDS011;46975;51.898;11.444;2023-01-31T00:30:29;7.72;;;1.95;;
61091;SDS011;46975;51.898;11.444;2023-01-31T00:32:55;10.23;;;2.22;;
61091;SDS011;46975;51.898;11.444;2023-01-31T00:35:20;7.57;;;2.15;;
61091;SDS011;46975;51.898;11.444;2023-01-31T00:37:46;14.85;;;2.75;;
61091;SDS011;46975;51.898;11.444;2023-01-31T00:40:11;9.95;;;3.30;;
61091;SDS011;46975;51.898;11.444;2023-01-31T00:42:37;9.98;;;1.58;;
61091;SDS011;46975;51.898;11.444;2023-01-31T00:45:03;9.45;;;2.55;;
61091;SDS011;46975;51.898;11.444;2023-01-31T00:47:29;2.72;;;1.20;;
61091;SDS011;46975;51.898;11.444;2023-01-31T00:49:55;12.95;;;1.63;;
61091;SDS011;46975;51.898;11.444;2023-01-31T00:52:20;6.05;;;1.75;;
61091;SDS011;46975;51.898;11.444;2023-01-31T00:54:46;10.13;;;1.67;;
61091;SDS011;46975;51.898;11.444;2023-01-31T00:57:11;11.63;;;1.90;;
61091;SDS011;46975;51.898;11.444;2023-01-31T00:59:37;8.23;;;2.40;;
61091;SDS011;46975;51.898;11.444;2023-01-31T01:02:02;10.02;;;1.75;;
61091;SDS011;46975;51.898;11.444;2023-01-31T01:04:28;6.63;;;1.42;;
61091;SDS011;46975;51.898;11.444;2023-01-31T01:06:54;5.28;;;1.27;;
61091;SDS011;46975;51.898;11.444;2023-01-31T01:09:19;5.15;;;1.00;;
61091;SDS011;46975;51.898;11.444;2023-01-31T01:11:46;5.93;;;1.13;;
61091;SDS011;46975;51.898;11.444;2023-01-31T01:14:13;7.90;;;2.08;;
61091;SDS011;46975;51.898;11.444;2023-01-31T01:16:39;6.68;;;2.33;;
61091;SDS011;46975;51.898;11.444;2023-01-31T01:19:07;8.45;;;2.45;;
61091;SDS011;46975;51.898;11.444;2023-01-31T01:21:35;8.55;;;1.23;;
61091;SDS011;46975;51.898;11.444;2023-01-31T01:24:03;9.68;;;1.85;;
61091;SDS011;46975;51.898;11.444;2023-01-31T01:26:32;9.63;;;0.97;;
61091;SDS011;46975;51.898;11.444;2023-01-31T01:28:58;9.55;;;1.77;;
61091;SDS011;46975;51.898;11.444;2023-01-31T01:31:25;8.38;;;1.95;;
61091;SDS011;46975;51.898;11.444;2023-01-31T01:33:55;5.20;;;1.38;;
61091;SDS011;46975;51.898;11.444;2023-01-31T01:36:22;9.57;;;2.03;;
61091;SDS011;46975;51.898;11.444;2023-01-31T01:38:50;12.65;;;2.63;;
61091;SDS011;46975;51.898;11.444;2023-01-31T01:41:16;10.07;;;3.03;;
61091;SDS011;46975;51.898;11.444;2023-01-31T01:43:50;6.72;;;1.55;;
61091;SDS011;46975;51.898;11.444;2023-01-31T01:48:57;15.32;;;2.22;;
61091;SDS011;46975;51.898;11.444;2023-01-31T01:51:45;9.68;;;1.75;;
61091;SDS011;46975;51.898;11.444;2023-01-31T01:54:14;11.07;;;2.65;;
61091;SDS011;46975;51.898;11.444;2023-01-31T01:56:44;11.57;;;1.67;;
61091;SDS011;46975;51.898;11.444;2023-01-31T01:59:20;7.28;;;1.13;;
61091;SDS011;46975;51.898;11.444;2023-01-31T02:01:53;9.57;;;2.45;;
61091;SDS011;46975;51.898;11.444;2023-01-31T02:04:21;9.75;;;1.85;;
61091;SDS011;46975;51.898;11.444;2023-01-31T02:06:52;9.35;;;3.40;;
61091;SDS011;46975;51.898;11.444;2023-01-31T02:09:23;20.30;;;1.63;;
61091;SDS011;46975;51.898;11.444;2023-01-31T02:11:56;13.27;;;2.33;;
61091;SDS011;46975;51.898;11.444;2023-01-31T02:14:23;12.80;;;2.60;;
61091;SDS011;46975;51.898;11.444;2023-01-31T02:16:49;10.95;;;2.20;;
61091;SDS011;46975;51.898;11.444;2023-01-31T02:19:18;15.38;;;2.72;;
61091;SDS011;46975;51.898;11.444;2023-01-31T02:22:08;9.77;;;4.03;;
61091;SDS011;46975;51.898;11.444;2023-01-31T02:27:33;9.98;;;2.25;;
61091;SDS011;46975;51.898;11.444;2023-01-31T02:33:04;19.10;;;3.05;;
61091;SDS011;46975;51.898;11.444;2023-01-31T02:35:40;12.80;;;1.77;;
61091;SDS011;46975;51.898;11.444;2023-01-31T02:44:19;13.95;;;2.10;;
61091;SDS011;46975;51.898;11.444;2023-01-31T02:49:45;12.68;;;1.90;;
61091;SDS011;46975;51.898;11.444;2023-01-31T02:52:39;7.43;;;1.27;;
61091;SDS011;46975;51.898;11.444;2023-01-31T02:58:04;12.40;;;2.40;;
61091;SDS011;46975;51.898;11.444;2023-01-31T03:00:33;4.40;;;1.63;;
61091;SDS011;46975;51.898;11.444;2023-01-31T03:03:03;9.60;;;2.05;;
61091;SDS011;46975;51.898;11.444;2023-01-31T03:05:30;12.40;;;3.13;;
61091;SDS011;46975;51.898;11.444;2023-01-31T03:07:57;6.30;;;1.73;;
61091;SDS011;46975;51.898;11.444;2023-01-31T03:19:15;7.60;;;2.20;;
61091;SDS011;46975;51.898;11.444;2023-01-31T03:21:46;10.50;;;2.83;;
61091;SDS011;46975;51.898;11.444;2023-01-31T03:24:17;11.40;;;1.42;;
61091;SDS011;46975;51.898;11.444;2023-01-31T03:26:43;5.60;;;1.55;;
61091;SDS011;46975;51.898;11.444;2023-01-31T03:29:12;7.38;;;0.95;;
61091;SDS011;46975;51.898;11.444;2023-01-31T03:31:52;7.20;;;1.63;;
61091;SDS011;46975;51.898;11.444;2023-01-31T03:34:24;4.38;;;1.38;;
61091;SDS011;46975;51.898;11.444;2023-01-31T03:47:40;8.82;;;1.52;;
61091;SDS011;46975;51.898;11.444;2023-01-31T03:50:13;11.02;;;2.80;;
61091;SDS011;46975;51.898;11.444;2023-01-31T03:55:23;9.80;;;2.50;;
61091;SDS011;46975;51.898;11.444;2023-01-31T03:57:55;12.95;;;2.45;;
61091;SDS011;46975;51.898;11.444;2023-01-31T04:00:24;6.03;;;2.35;;
61091;SDS011;46975;51.898;11.444;2023-01-31T04:02:53;6.72;;;2.72;;
61091;SDS011;46975;51.898;11.444;2023-01-31T04:05:24;9.48;;;1.27;;
61091;SDS011;46975;51.898;11.444;2023-01-31T04:07:54;9.55;;;2.53;;
61091;SDS011;46975;51.898;11.444;2023-01-31T04:10:21;11.02;;;2.13;;
61091;SDS011;46975;51.898;11.444;2023-01-31T04:12:47;15.07;;;1.80;;
61091;SDS011;46975;51.898;11.444;2023-01-31T04:15:13;10.57;;;2.25;;
61091;SDS011;46975;51.898;11.444;2023-01-31T04:17:39;10.18;;;2.40;;
61091;SDS011;46975;51.898;11.444;2023-01-31T04:20:05;9.02;;;1.20;;
61091;SDS011;46975;51.898;11.444;2023-01-31T04:22:31;5.15;;;1.50;;
61091;SDS011;46975;51.898;11.444;2023-01-31T04:24:57;10.00;;;2.50;;
61091;SDS011;46975;51.898;11.444;2023-01-31T04:27:22;6.88;;;2.28;;
61091;SDS011;46975;51.898;11.444;2023-01-31T04:29:48;9.82;;;1.77;;
61091;SDS011;46975;51.898;11.444;2023-01-31T04:32:13;9.07;;;1.90;;
61091;SDS011;46975;51.898;11.444;2023-01-31T04:34:39;4.97;;;1.40;;
61091;SDS011;46975;51.898;11.444;2023-01-31T04:37:05;11.70;;;1.13;;
61091;SDS011;46975;51.898;11.444;2023-01-31T04:39:30;6.45;;;1.58;;
61091;SDS011;46975;51.898;11.444;2023-01-31T04:41:56;6.78;;;1.33;;
61091;SDS011;46975;51.898;11.444;2023-01-31T04:44:21;14.40;;;3.20;;
61091;SDS011;46975;51.898;11.444;2023-01-31T04:46:47;10.63;;;1.25;;
61091;SDS011;46975;51.898;11.444;2023-01-31T04:49:13;9.10;;;1.08;;
61091;SDS011;46975;51.898;11.444;2023-01-31T04:51:39;11.98;;;1.20;;
61091;SDS011;46975;51.898;11.444;2023-01-31T04:54:05;4.80;;;1.40;;
61091;SDS011;46975;51.898;11.444;2023-01-31T04:56:31;9.68;;;2.15;;
61091;SDS011;46975;51.898;11.444;2023-01-31T04:58:57;8.80;;;1.65;;
61091;SDS011;46975;51.898;11.444;2023-01-31T05:01:23;8.27;;;1.65;;
61091;SDS011;46975;51.898;11.444;2023-01-31T05:03:49;2.15;;;1.48;;
61091;SDS011;46975;51.898;11.444;2023-01-31T05:06:14;9.40;;;1.40;;
61091;SDS011;46975;51.898;11.444;2023-01-31T05:08:40;4.75;;;1.42;;
61091;SDS011;46975;51.898;11.444;2023-01-31T05:11:06;10.27;;;1.85;;
61091;SDS011;46975;51.898;11.444;2023-01-31T05:13:32;8.10;;;2.17;;
61091;SDS011;46975;51.898;11.444;2023-01-31T05:16:04;6.80;;;1.52;;
61091;SDS011;46975;51.898;11.444;2023-01-31T05:18:34;4.10;;;1.52;;
61091;SDS011;46975;51.898;11.444;2023-01-31T05:21:01;18.65;;;3.47;;
61091;SDS011;46975;51.898;11.444;2023-01-31T05:23:27;11.82;;;2.22;;
61091;SDS011;46975;51.898;11.444;2023-01-31T05:25:54;9.25;;;1.70;;
61091;SDS011;46975;51.898;11.444;2023-01-31T05:28:20;9.10;;;2.28;;
61091;SDS011;46975;51.898;11.444;2023-01-31T05:30:45;5.13;;;1.80;;
61091;SDS011;46975;51.898;11.444;2023-01-31T05:33:11;4.97;;;2.13;;
61091;SDS011;46975;51.898;11.444;2023-01-31T05:35:37;10.40;;;1.77;;
61091;SDS011;46975;51.898;11.444;2023-01-31T05:38:03;6.68;;;1.40;;
61091;SDS011;46975;51.898;11.444;2023-01-31T05:40:30;11.43;;;1.35;;
61091;SDS011;46975;51.898;11.444;2023-01-31T05:42:56;7.32;;;1.60;;
61091;SDS011;46975;51.898;11.444;2023-01-31T05:45:26;7.40;;;1.88;;
61091;SDS011;46975;51.898;11.444;2023-01-31T05:47:53;8.23;;;2.35;;
61091;SDS011;46975;51.898;11.444;2023-01-31T05:50:19;5.00;;;2.10;;
61091;SDS011;46975;51.898;11.444;2023-01-31T05:52:51;8.40;;;1.85;;
61091;SDS011;46975;51.898;11.444;2023-01-31T05:55:18;6.78;;;1.15;;
61091;SDS011;46975;51.898;11.444;2023-01-31T05:57:45;2.95;;;1.42;;
61091;SDS011;46975;51.898;11.444;2023-01-31T06:00:11;9.55;;;2.17;;
61091;SDS011;46975;51.898;11.444;2023-01-31T06:02:38;9.52;;;1.38;;
61091;SDS011;46975;51.898;11.444;2023-01-31T06:05:04;6.10;;;1.65;;
61091;SDS011;46975;51.898;11.444;2023-01-31T06:07:30;6.25;;;2.05;;
61091;SDS011;46975;51.898;11.444;2023-01-31T06:09:55;14.20;;;1.85;;
61091;SDS011;46975;51.898;11.444;2023-01-31T06:12:21;3.45;;;1.08;;
61091;SDS011;46975;51.898;11.444;2023-01-31T06:14:46;5.93;;;1.83;;
61091;SDS011;46975;51.898;11.444;2023-01-31T06:17:13;8.23;;;1.55;;
61091;SDS011;46975;51.898;11.444;2023-01-31T06:19:38;4.28;;;0.98;;
61091;SDS011;46975;51.898;11.444;2023-01-31T06:22:04;7.65;;;1.48;;
61091;SDS011;46975;51.898;11.444;2023-01-31T06:24:30;3.53;;;1.05;;
61091;SDS011;46975;51.898;11.444;2023-01-31T06:26:56;6.32;;;1.10;;
61091;SDS011;46975;51.898;11.444;2023-01-31T06:29:21;10.35;;;1.35;;
61091;SDS011;46975;51.898;11.444;2023-01-31T06:31:48;8.52;;;1.10;;
61091;SDS011;46975;51.898;11.444;2023-01-31T06:34:14;4.75;;;1.92;;
61091;SDS011;46975;51.898;11.444;2023-01-31T06:36:39;11.63;;;1.40;;
61091;SDS011;46975;51.898;11.444;2023-01-31T06:39:05;6.80;;;2.50;;
61091;SDS011;46975;51.898;11.444;2023-01-31T06:41:31;8.85;;;2.30;;
61091;SDS011;46975;51.898;11.444;2023-01-31T06:43:56;8.73;;;2.05;;
61091;SDS011;46975;51.898;11.444;2023-01-31T06:46:22;7.88;;;2.13;;
61091;SDS011;46975;51.898;11.444;2023-01-31T06:48:49;4.38;;;0.85;;
61091;SDS011;46975;51.898;11.444;2023-01-31T06:51:15;4.05;;;1.10;;
61091;SDS011;46975;51.898;11.444;2023-01-31T06:53:41;9.63;;;1.95;;
61091;SDS011;46975;51.898;11.444;2023-01-31T06:56:07;6.10;;;1.17;;
61091;SDS011;46975;51.898;11.444;2023-01-31T06:58:33;5.30;;;2.03;;
61091;SDS011;46975;51.898;11.444;2023-01-31T07:01:05;11.43;;;1.70;;
61091;SDS011;46975;51.898;11.444;2023-01-31T07:03:32;5.13;;;0.88;;
61091;SDS011;46975;51.898;11.444;2023-01-31T07:05:58;5.65;;;1.48;;
61091;SDS011;46975;51.898;11.444;2023-01-31T07:08:23;8.02;;;1.30;;
61091;SDS011;46975;51.898;11.444;2023-01-31T07:10:49;7.55;;;1.52;;
61091;SDS011;46975;51.898;11.444;2023-01-31T07:13:15;12.82;;;2.40;;
61091;SDS011;46975;51.898;11.444;2023-01-31T07:15:40;4.45;;;1.05;;
61091;SDS011;46975;51.898;11.444;2023-01-31T07:18:06;5.57;;;1.70;;
61091;SDS011;46975;51.898;11.444;2023-01-31T07:20:32;5.07;;;1.58;;
61091;SDS011;46975;51.898;11.444;2023-01-31T07:22:58;6.28;;;1.48;;
61091;SDS011;46975;51.898;11.444;2023-01-31T07:25:24;4.97;;;1.45;;
61091;SDS011;46975;51.898;11.444;2023-01-31T07:27:51;7.80;;;0.88;;
61091;SDS011;46975;51.898;11.444;2023-01-31T07:30:16;5.50;;;2.42;;
61091;SDS011;46975;51.898;11.444;2023-01-31T07:32:42;7.18;;;1.08;;
61091;SDS011;46975;51.898;11.444;2023-01-31T07:35:08;11.75;;;2.33;;
61091;SDS011;46975;51.898;11.444;2023-01-31T07:37:34;7.82;;;0.50;;
61091;SDS011;46975;51.898;11.444;2023-01-31T07:39:59;8.82;;;1.83;;
61091;SDS011;46975;51.898;11.444;2023-01-31T07:42:25;3.83;;;1.98;;
61091;SDS011;46975;51.898;11.444;2023-01-31T07:44:52;11.73;;;2.42;;
61091;SDS011;46975;51.898;11.444;2023-01-31T07:47:18;4.68;;;1.00;;
61091;SDS011;46975;51.898;11.444;2023-01-31T07:49:44;3.53;;;0.57;;
61091;SDS011;46975;51.898;11.444;2023-01-31T07:52:09;1.25;;;0.70;;
61091;SDS011;46975;51.898;11.444;2023-01-31T07:54:35;13.05;;;1.98;;
61091;SDS011;46975;51.898;11.444;2023-01-31T07:57:01;8.13;;;3.65;;
61091;SDS011;46975;51.898;11.444;2023-01-31T07:59:26;12.60;;;3.13;;
61091;SDS011;46975;51.898;11.444;2023-01-31T08:01:52;5.65;;;1.95;;
61091;SDS011;46975;51.898;11.444;2023-01-31T08:04:36;5.72;;;2.15;;
61091;SDS011;46975;51.898;11.444;2023-01-31T08:07:02;7.30;;;1.60;;
61091;SDS011;46975;51.898;11.444;2023-01-31T08:09:29;11.43;;;1.38;;
61091;SDS011;46975;51.898;11.444;2023-01-31T08:11:55;4.20;;;1.23;;
61091;SDS011;46975;51.898;11.444;2023-01-31T08:14:21;3.42;;;1.58;;
61091;SDS011;46975;51.898;11.444;2023-01-31T08:16:49;5.65;;;1.48;;
61091;SDS011;46975;51.898;11.444;2023-01-31T08:19:15;8.27;;;1.50;;
61091;SDS011;46975;51.898;11.444;2023-01-31T08:21:41;10.20;;;1.73;;
61091;SDS011;46975;51.898;11.444;2023-01-31T08:24:07;8.27;;;2.17;;
61091;SDS011;46975;51.898;11.444;2023-01-31T08:26:33;8.60;;;2.47;;
61091;SDS011;46975;51.898;11.444;2023-01-31T08:28:58;10.50;;;2.20;;
61091;SDS011;46975;51.898;11.444;2023-01-31T08:31:25;7.35;;;1.50;;
61091;SDS011;46975;51.898;11.444;2023-01-31T08:33:52;7.57;;;1.98;;
61091;SDS011;46975;51.898;11.444;2023-01-31T08:38:45;6.95;;;1.95;;
61091;SDS011;46975;51.898;11.444;2023-01-31T08:41:12;8.32;;;1.77;;
61091;SDS011;46975;51.898;11.444;2023-01-31T08:43:39;5.82;;;1.30;;
61091;SDS011;46975;51.898;11.444;2023-01-31T08:46:05;5.35;;;1.50;;
61091;SDS011;46975;51.898;11.444;2023-01-31T08:48:35;10.32;;;2.72;;
61091;SDS011;46975;51.898;11.444;2023-01-31T08:51:01;5.10;;;1.65;;
61091;SDS011;46975;51.898;11.444;2023-01-31T08:53:28;10.55;;;3.20;;
61091;SDS011;46975;51.898;11.444;2023-01-31T08:55:57;3.72;;;1.70;;
61091;SDS011;46975;51.898;11.444;2023-01-31T08:58:26;3.78;;;1.67;;
61091;SDS011;46975;51.898;11.444;2023-01-31T09:00:51;10.07;;;1.65;;
61091;SDS011;46975;51.898;11.444;2023-01-31T09:03:17;8.43;;;2.45;;
61091;SDS011;46975;51.898;11.444;2023-01-31T09:05:43;9.43;;;2.00;;
61091;SDS011;46975;51.898;11.444;2023-01-31T09:08:10;18.42;;;3.40;;
61091;SDS011;46975;51.898;11.444;2023-01-31T09:10:36;4.18;;;2.20;;
61091;SDS011;46975;51.898;11.444;2023-01-31T09:13:02;6.50;;;2.58;;
61091;SDS011;46975;51.898;11.444;2023-01-31T09:15:28;10.07;;;3.55;;
61091;SDS011;46975;51.898;11.444;2023-01-31T09:17:54;15.30;;;3.42;;
61091;SDS011;46975;51.898;11.444;2023-01-31T09:20:19;14.65;;;3.45;;
61091;SDS011;46975;51.898;11.444;2023-01-31T09:22:45;14.07;;;2.65;;
61091;SDS011;46975;51.898;11.444;2023-01-31T09:25:10;9.80;;;3.70;;
61091;SDS011;46975;51.898;11.444;2023-01-31T09:27:37;10.93;;;3.42;;
61091;SDS011;46975;51.898;11.444;2023-01-31T09:30:06;9.73;;;4.03;;
61091;SDS011;46975;51.898;11.444;2023-01-31T09:32:33;12.80;;;3.50;;
61091;SDS011;46975;51.898;11.444;2023-01-31T09:34:59;10.70;;;2.63;;
61091;SDS011;46975;51.898;11.444;2023-01-31T09:37:25;6.45;;;2.40;;
61091;SDS011;46975;51.898;11.444;2023-01-31T09:42:29;13.23;;;3.05;;
61091;SDS011;46975;51.898;11.444;2023-01-31T09:47:33;11.13;;;4.35;;
61091;SDS011;46975;51.898;11.444;2023-01-31T09:50:06;9.68;;;3.85;;
61091;SDS011;46975;51.898;11.444;2023-01-31T09:52:46;6.28;;;3.15;;
61091;SDS011;46975;51.898;11.444;2023-01-31T09:55:16;6.88;;;3.03;;
61091;SDS011;46975;51.898;11.444;2023-01-31T10:13:10;7.80;;;3.55;;
61091;SDS011;46975;51.898;11.444;2023-01-31T10:16:13;8.48;;;2.92;;
61091;SDS011;46975;51.898;11.444;2023-01-31T10:18:43;5.10;;;2.60;;
61091;SDS011;46975;51.898;11.444;2023-01-31T10:21:24;9.52;;;2.95;;
61091;SDS011;46975;51.898;11.444;2023-01-31T10:23:58;5.43;;;2.53;;
61091;SDS011;46975;51.898;11.444;2023-01-31T10:26:31;14.25;;;3.30;;
61091;SDS011;46975;51.898;11.444;2023-01-31T10:29:15;7.90;;;2.67;;
61091;SDS011;46975;51.898;11.444;2023-01-31T10:32:07;11.23;;;3.28;;
61091;SDS011;46975;51.898;11.444;2023-01-31T10:34:49;3.80;;;2.55;;
61091;SDS011;46975;51.898;11.444;2023-01-31T10:37:41;9.90;;;2.22;;
61091;SDS011;46975;51.898;11.444;2023-01-31T10:43:08;10.30;;;2.72;;
61091;SDS011;46975;51.898;11.444;2023-01-31T10:45:42;11.40;;;2.80;;
61091;SDS011;46975;51.898;11.444;2023-01-31T10:56:25;12.13;;;2.78;;
61091;SDS011;46975;51.898;11.444;2023-01-31T10:58:58;9.60;;;3.92;;
61091;SDS011;46975;51.898;11.444;2023-01-31T11:01:26;7.05;;;2.55;;
61091;SDS011;46975;51.898;11.444;2023-01-31T11:03:53;8.02;;;2.55;;
61091;SDS011;46975;51.898;11.444;2023-01-31T11:06:20;9.18;;;3.33;;
61091;SDS011;46975;51.898;11.444;2023-01-31T11:08:47;6.22;;;3.22;;
61091;SDS011;46975;51.898;11.444;2023-01-31T11:11:22;3.97;;;1.60;;
61091;SDS011;46975;51.898;11.444;2023-01-31T11:13:59;9.32;;;2.75;;
61091;SDS011;46975;51.898;11.444;2023-01-31T11:16:30;9.82;;;2.85;;
61091;SDS011;46975;51.898;11.444;2023-01-31T11:18:58;5.38;;;1.77;;
61091;SDS011;46975;51.898;11.444;2023-01-31T11:21:31;14.38;;;3.38;;
61091;SDS011;46975;51.898;11.444;2023-01-31T11:24:00;10.43;;;1.90;;
61091;SDS011;46975;51.898;11.444;2023-01-31T11:26:33;10.52;;;2.50;;
61091;SDS011;46975;51.898;11.444;2023-01-31T11:29:01;13.48;;;3.03;;
61091;SDS011;46975;51.898;11.444;2023-01-31T11:31:41;10.18;;;2.28;;
61091;SDS011;46975;51.898;11.444;2023-01-31T11:34:24;7.60;;;2.60;;
61091;SDS011;46975;51.898;11.444;2023-01-31T11:36:51;5.35;;;3.25;;
61091;SDS011;46975;51.898;11.444;2023-01-31T11:39:38;11.43;;;3.75;;
61091;SDS011;46975;51.898;11.444;2023-01-31T11:42:10;9.45;;;3.70;;
61091;SDS011;46975;51.898;11.444;2023-01-31T11:44:52;7.93;;;2.63;;
61091;SDS011;46975;51.898;11.444;2023-01-31T11:47:23;4.20;;;1.30;;
61091;SDS011;46975;51.898;11.444;2023-01-31T11:49:56;4.60;;;2.38;;
61091;SDS011;46975;51.898;11.444;2023-01-31T11:52:26;9.27;;;4.18;;
61091;SDS011;46975;51.898;11.444;2023-01-31T11:54:55;5.80;;;2.95;;
61091;SDS011;46975;51.898;11.444;2023-01-31T11:57:29;4.25;;;2.22;;
61091;SDS011;46975;51.898;11.444;2023-01-31T11:59:58;6.50;;;1.80;;
61091;SDS011;46975;51.898;11.444;2023-01-31T12:02:37;7.38;;;1.67;;
61091;SDS011;46975;51.898;11.444;2023-01-31T12:05:11;7.78;;;1.67;;
61091;SDS011;46975;51.898;11.444;2023-01-31T12:07:44;6.30;;;1.63;;
61091;SDS011;46975;51.898;11.444;2023-01-31T12:10:27;1.60;;;0.85;;
61091;SDS011;46975;51.898;11.444;2023-01-31T12:12:58;9.50;;;2.37;;
61091;SDS011;46975;51.898;11.444;2023-01-31T12:15:35;2.38;;;0.90;;
61091;SDS011;46975;51.898;11.444;2023-01-31T12:18:00;7.55;;;1.33;;
61091;SDS011;46975;51.898;11.444;2023-01-31T12:20:41;0.88;;;0.50;;
61091;SDS011;46975;51.898;11.444;2023-01-31T12:44:58;0.85;;;0.60;;
61091;SDS011;46975;51.898;11.444;2023-01-31T12:50:32;3.65;;;0.98;;
61091;SDS011;46975;51.898;11.444;2023-01-31T12:58:48;3.43;;;0.60;;
61091;SDS011;46975;51.898;11.444;2023-01-31T13:01:36;5.53;;;0.95;;
61091;SDS011;46975;51.898;11.444;2023-01-31T13:06:58;4.05;;;1.10;;
61091;SDS011;46975;51.898;11.444;2023-01-31T13:09:34;3.78;;;1.45;;
61091;SDS011;46975;51.898;11.444;2023-01-31T13:12:03;2.15;;;1.20;;
61091;SDS011;46975;51.898;11.444;2023-01-31T13:14:53;7.20;;;2.40;;
61091;SDS011;46975;51.898;11.444;2023-01-31T13:19:56;2.13;;;0.95;;
61091;SDS011;46975;51.898;11.444;2023-01-31T13:22:45;2.50;;;1.17;;
61091;SDS011;46975;51.898;11.444;2023-01-31T13:25:23;4.15;;;0.63;;
61091;SDS011;46975;51.898;11.444;2023-01-31T13:27:59;1.42;;;0.88;;
61091;SDS011;46975;51.898;11.444;2023-01-31T13:30:58;5.22;;;1.50;;
61091;SDS011;46975;51.898;11.444;2023-01-31T13:33:36;1.63;;;0.70;;
61091;SDS011;46975;51.898;11.444;2023-01-31T13:38:47;1.33;;;1.15;;
61091;SDS011;46975;51.898;11.444;2023-01-31T13:41:19;2.42;;;0.82;;
61091;SDS011;46975;51.898;11.444;2023-01-31T13:43:51;1.23;;;0.80;;
61091;SDS011;46975;51.898;11.444;2023-01-31T13:46:18;1.52;;;1.30;;
61091;SDS011;46975;51.898;11.444;2023-01-31T13:48:53;1.55;;;0.80;;
61091;SDS011;46975;51.898;11.444;2023-01-31T13:51:28;1.17;;;0.77;;
61091;SDS011;46975;51.898;11.444;2023-01-31T13:56:35;0.82;;;0.50;;
61091;SDS011;46975;51.898;11.444;2023-01-31T13:59:06;0.50;;;0.50;;
61091;SDS011;46975;51.898;11.444;2023-01-31T14:01:34;0.70;;;0.65;;
61091;SDS011;46975;51.898;11.444;2023-01-31T14:12:44;1.92;;;0.80;;
61091;SDS011;46975;51.898;11.444;2023-01-31T14:17:55;1.30;;;0.90;;
61091;SDS011;46975;51.898;11.444;2023-01-31T14:20:38;1.98;;;0.40;;
61091;SDS011;46975;51.898;11.444;2023-01-31T14:23:58;2.22;;;1.23;;
61091;SDS011;46975;51.898;11.444;2023-01-31T14:25:54;3.22;;;0.90;;
61091;SDS011;46975;51.898;11.444;2023-01-31T14:28:19;2.28;;;1.00;;
61091;SDS011;46975;51.898;11.444;2023-01-31T14:30:46;0.80;;;0.52;;
61091;SDS011;46975;51.898;11.444;2023-01-31T14:41:19;0.32;;;0.20;;
61091;SDS011;46975;51.898;11.444;2023-01-31T14:47:06;0.10;;;0.00;;
61091;SDS011;46975;51.898;11.444;2023-01-31T14:57:26;0.45;;;0.10;;
61091;SDS011;46975;51.898;11.444;2023-01-31T14:59:57;0.22;;;0.10;;
61091;SDS011;46975;51.898;11.444;2023-01-31T15:08:00;0.00;;;0.00;;
61091;SDS011;46975;51.898;11.444;2023-01-31T15:16:03;0.00;;;0.00;;
61091;SDS011;46975;51.898;11.444;2023-01-31T15:18:31;0.25;;;0.05;;
61091;SDS011;46975;51.898;11.444;2023-01-31T15:20:59;0.10;;;0.10;;
61091;SDS011;46975;51.898;11.444;2023-01-31T15:23:28;0.08;;;0.08;;
61091;SDS011;46975;51.898;11.444;2023-01-31T15:28:27;0.00;;;0.00;;
61091;SDS011;46975;51.898;11.444;2023-01-31T15:30:59;0.17;;;0.10;;
61091;SDS011;46975;51.898;11.444;2023-01-31T15:33:33;0.22;;;0.10;;
61091;SDS011;46975;51.898;11.444;2023-01-31T15:36:06;0.20;;;0.10;;
61091;SDS011;46975;51.898;11.444;2023-01-31T15:41:39;0.00;;;0.00;;
61091;SDS011;46975;51.898;11.444;2023-01-31T15:44:15;0.30;;;0.10;;
61091;SDS011;46975;51.898;11.444;2023-01-31T15:46:43;0.20;;;0.10;;
61091;SDS011;46975;51.898;11.444;2023-01-31T15:54:32;0.30;;;0.10;;
61091;SDS011;46975;51.898;11.444;2023-01-31T15:56:58;1.23;;;0.10;;
61091;SDS011;46975;51.898;11.444;2023-01-31T15:59:27;0.00;;;0.00;;
61091;SDS011;46975;51.898;11.444;2023-01-31T16:02:01;2.85;;;0.40;;
61091;SDS011;46975;51.898;11.444;2023-01-31T16:04:28;0.30;;;0.20;;
61091;SDS011;46975;51.898;11.444;2023-01-31T16:06:54;0.65;;;0.10;;
61091;SDS011;46975;51.898;11.444;2023-01-31T16:11:52;0.20;;;0.20;;
61091;SDS011;46975;51.898;11.444;2023-01-31T16:14:19;0.17;;;0.17;;
61091;SDS011;46975;51.898;11.444;2023-01-31T16:16:46;0.43;;;0.20;;
61091;SDS011;46975;51.898;11.444;2023-01-31T16:19:24;0.63;;;0.30;;
61091;SDS011;46975;51.898;11.444;2023-01-31T16:21:52;0.40;;;0.40;;
61091;SDS011;46975;51.898;11.444;2023-01-31T16:24:20;0.40;;;0.40;;
61091;SDS011;46975;51.898;11.444;2023-01-31T16:29:16;0.60;;;0.55;;
61091;SDS011;46975;51.898;11.444;2023-01-31T16:31:48;0.40;;;0.40;;
61091;SDS011;46975;51.898;11.444;2023-01-31T16:34:20;2.45;;;1.02;;
61091;SDS011;46975;51.898;11.444;2023-01-31T16:36:53;1.92;;;1.00;;
61091;SDS011;46975;51.898;11.444;2023-01-31T16:41:58;2.97;;;0.80;;
61091;SDS011;46975;51.898;11.444;2023-01-31T16:44:26;3.85;;;1.17;;
61091;SDS011;46975;51.898;11.444;2023-01-31T16:46:56;2.22;;;0.82;;
61091;SDS011;46975;51.898;11.444;2023-01-31T16:49:24;0.73;;;0.73;;
61091;SDS011;46975;51.898;11.444;2023-01-31T16:51:55;1.85;;;1.08;;
61091;SDS011;46975;51.898;11.444;2023-01-31T16:54:42;1.98;;;1.00;;
61091;SDS011;46975;51.898;11.444;2023-01-31T16:57:22;1.02;;;0.80;;
61091;SDS011;46975;51.898;11.444;2023-01-31T16:59:58;0.93;;;0.75;;
61091;SDS011;46975;51.898;11.444;2023-01-31T17:02:31;2.20;;;0.77;;
61091;SDS011;46975;51.898;11.444;2023-01-31T17:08:08;1.17;;;0.75;;
61091;SDS011;46975;51.898;11.444;2023-01-31T17:10:40;1.20;;;1.05;;
61091;SDS011;46975;51.898;11.444;2023-01-31T17:13:19;2.13;;;1.00;;
61091;SDS011;46975;51.898;11.444;2023-01-31T17:15:46;1.20;;;0.73;;
61091;SDS011;46975;51.898;11.444;2023-01-31T17:18:13;3.90;;;1.30;;
61091;SDS011;46975;51.898;11.444;2023-01-31T17:20:45;1.23;;;1.13;;
61091;SDS011;46975;51.898;11.444;2023-01-31T17:23:15;1.77;;;0.93;;
61091;SDS011;46975;51.898;11.444;2023-01-31T17:25:41;0.98;;;0.88;;
61091;SDS011;46975;51.898;11.444;2023-01-31T17:28:07;1.45;;;1.00;;
61091;SDS011;46975;51.898;11.444;2023-01-31T17:30:33;1.33;;;0.73;;
61091;SDS011;46975;51.898;11.444;2023-01-31T17:33:07;1.35;;;1.00;;
61091;SDS011;46975;51.898;11.444;2023-01-31T17:35:37;2.45;;;1.85;;
61091;SDS011;46975;51.898;11.444;2023-01-31T17:38:04;2.13;;;1.75;;
61091;SDS011;46975;51.898;11.444;2023-01-31T17:40:30;1.95;;;1.38;;
61091;SDS011;46975;51.898;11.444;2023-01-31T17:42:57;1.48;;;0.98;;
61091;SDS011;46975;51.898;11.444;2023-01-31T17:45:28;2.53;;;1.40;;
61091;SDS011;46975;51.898;11.444;2023-01-31T17:47:54;2.45;;;1.73;;